TimeEST,TemperatureF,Dew PointF,Humidity,Sea Level PressureIn,VisibilityMPH,Wind Direction,Wind SpeedMPH,Gust SpeedMPH,PrecipitationIn,Events,Conditions,WindDirDegrees,DateUTC
12:53 AM,42.1,33.1,70,30.07,10.0,West,4.6,-,N/A,,Clear,270,2013-02-15 05:53:00
1:53 AM,39.0,33.1,79,30.07,10.0,West,3.5,-,N/A,,Clear,270,2013-02-15 06:53:00
2:53 AM,37.9,33.1,83,30.07,10.0,Calm,Calm,-,N/A,,Clear,0,2013-02-15 07:53:00
3:53 AM,37.0,34.0,89,30.07,10.0,WNW,4.6,-,N/A,,Clear,290,2013-02-15 08:53:00
4:53 AM,35.1,32.0,89,30.07,9.0,WNW,3.5,-,N/A,,Clear,300,2013-02-15 09:53:00
5:53 AM,34.0,32.0,92,30.08,10.0,NW,3.5,-,N/A,,Clear,310,2013-02-15 10:53:00
6:53 AM,34.0,30.9,89,30.10,10.0,Calm,Calm,-,N/A,,Clear,0,2013-02-15 11:53:00
7:53 AM,34.0,30.9,89,30.11,10.0,WNW,4.6,-,N/A,,Clear,300,2013-02-15 12:53:00
8:53 AM,39.9,33.1,77,30.12,10.0,WNW,3.5,-,N/A,,Clear,290,2013-02-15 13:53:00
9:53 AM,46.0,35.1,66,30.12,10.0,WNW,6.9,-,N/A,,Clear,290,2013-02-15 14:53:00
10:53 AM,52.0,34.0,50,30.10,10.0,West,5.8,-,N/A,,Clear,260,2013-02-15 15:53:00
11:53 AM,55.0,34.0,45,30.09,10.0,WNW,4.6,-,N/A,,Clear,290,2013-02-15 16:53:00
12:53 PM,57.0,30.0,36,30.06,10.0,West,9.2,16.1,N/A,,Clear,260,2013-02-15 17:53:00
1:53 PM,57.9,30.0,35,30.03,10.0,WSW,12.7,19.6,N/A,,Clear,240,2013-02-15 18:53:00
2:53 PM,59.0,28.9,32,30.00,10.0,WSW,11.5,23.0,N/A,,Partly Cloudy,250,2013-02-15 19:53:00
3:53 PM,57.0,28.9,34,29.99,10.0,West,11.5,21.9,N/A,,Partly Cloudy,260,2013-02-15 20:53:00
4:53 PM,57.0,30.0,36,29.99,10.0,WNW,10.4,-,N/A,,Clear,290,2013-02-15 21:53:00
5:53 PM,55.0,30.0,38,29.99,10.0,West,8.1,-,N/A,,Scattered Clouds,260,2013-02-15 22:53:00
6:53 PM,54.0,30.0,40,29.99,10.0,West,6.9,-,N/A,,Overcast,260,2013-02-15 23:53:00
7:19 PM,51.8,35.6,54,30.01,10.0,NW,13.8,-,N/A,,Overcast,310,2013-02-16 00:19:00
7:53 PM,50.0,37.0,61,30.01,10.0,NW,10.4,-,N/A,,Overcast,310,2013-02-16 00:53:00
8:53 PM,46.0,36.0,68,30.02,10.0,NNW,12.7,23.0,N/A,,Clear,340,2013-02-16 01:53:00
9:53 PM,44.1,34.0,68,30.03,10.0,NNW,8.1,-,N/A,,Clear,330,2013-02-16 02:53:00
10:53 PM,41.0,33.1,73,30.02,10.0,WNW,5.8,-,N/A,,Clear,290,2013-02-16 03:53:00
11:53 PM,41.0,33.1,73,30.00,10.0,NW,5.8,-,N/A,,Clear,310,2013-02-16 04:53:00